Current Weather

Kenosha Rgnl

Kenosha, Wisconsin (KENW)

Report from: Thursday, August 18, 2022 10:53 PM CDT
Current time: Thursday, August 18, 2022 11:26 PM CDT

Nearby weather
Weather history
Weather forecast

Temperature21.1°C (70.0°F)
Dew point15.6°C (60.1°F)
Winds 4 kts (2.1 m/s, 4.6 mph) South (190°)
Visibility10 mi. (16.1 km)
Clouds Sky clear
Altimeter29.93 in.Hg (1014 mB)
Relative humidity71 %
Density altitude947 ft. (289 m)
Sea-level pressure101.3 kPa (1013 mB, 29.92 in.Hg)
Remarks Fully automated report
Automated weather observing station with precipitation discriminator
Flight conditions Visual Meteorological Conditions
Raw dataKENW 190353Z AUTO 19004KT 10SM CLR 21/16 A2993 RMK AO2 SLP132 T02110156
An unhandled exception has occurred. See browser dev tools for details. Reload 🗙